Time;durP1;ratioP1;P1;durP2;ratioP2;P2;SDS_P1;SDS_P2;PMS_P1;PMS_P2;Temp;Humidity;BMP_temperature;BMP_pressure;BME280_temperature;BME280_humidity;BME280_pressure;Samples;Min_cycle;Max_cycle;Signal;HPM_P1;HPM_P2
2023/07/22 00:00:29;;;;;;;12.05;4.82;;;;;;;23.92;46.60;93900.88;5064178;28;20048;-83
2023/07/22 00:02:54;;;;;;;11.57;4.63;;;;;;;23.83;47.03;93912.97;5063092;28;20327;-84
2023/07/22 00:05:23;;;;;;;13.18;5.40;;;;;;;23.81;47.50;93906.34;5064096;28;20096;-83
2023/07/22 00:07:49;;;;;;;14.07;5.25;;;;;;;23.77;47.83;93909.13;5064092;28;20021;-83
2023/07/22 00:10:15;;;;;;;13.85;4.85;;;;;;;23.71;48.39;93913.41;5063883;28;20058;-83
2023/07/22 00:12:41;;;;;;;23.05;5.32;;;;;;;23.71;48.18;93918.84;5063925;28;20048;-82
2023/07/22 00:15:07;;;;;;;16.65;4.32;;;;;;;23.73;48.24;93918.41;5063643;28;20071;-82
2023/07/22 00:17:32;;;;;;;10.20;4.95;;;;;;;23.73;48.51;93913.78;5063797;28;20040;-82
2023/07/22 00:19:58;;;;;;;12.13;4.63;;;;;;;23.80;49.67;93921.91;5063763;28;20051;-82
2023/07/22 00:22:26;;;;;;;12.60;5.07;;;;;;;23.82;48.51;93924.25;5063781;28;20021;-82
2023/07/22 00:24:51;;;;;;;12.45;4.95;;;;;;;23.75;49.59;93916.88;5063660;28;20227;-82
2023/07/22 00:27:17;;;;;;;14.38;5.07;;;;;;;23.70;50.05;93927.38;5063539;28;20024;-82
2023/07/22 00:29:43;;;;;;;12.43;4.97;;;;;;;23.66;50.00;93927.38;5063242;28;20024;-82
2023/07/22 00:32:08;;;;;;;21.58;4.90;;;;;;;23.63;49.46;93928.19;5063603;28;20231;-82
2023/07/22 00:34:34;;;;;;;12.38;5.30;;;;;;;23.56;50.13;93930.94;5063471;28;20023;-82
2023/07/22 00:37:00;;;;;;;11.15;5.13;;;;;;;23.41;50.67;93927.50;5063428;28;20262;-82
2023/07/22 00:39:25;;;;;;;20.17;4.78;;;;;;;23.28;51.55;93931.78;5063840;28;20108;-82
2023/07/22 00:41:51;;;;;;;15.65;5.35;;;;;;;23.33;51.91;93931.41;5063433;28;20028;-82
2023/07/22 00:44:16;;;;;;;11.60;4.80;;;;;;;23.27;51.49;93933.72;5062363;28;20037;-82
2023/07/22 00:46:42;;;;;;;14.95;4.15;;;;;;;23.24;51.55;93923.63;5063594;28;20025;-82
2023/07/22 00:49:08;;;;;;;14.82;4.93;;;;;;;23.19;51.84;93926.75;5063669;28;20130;-83
2023/07/22 00:51:34;;;;;;;13.55;4.75;;;;;;;23.25;52.28;93925.19;5063051;28;20029;-83
2023/07/22 00:53:59;;;;;;;9.50;4.68;;;;;;;23.28;52.83;93927.13;5063392;28;20075;-82
2023/07/22 00:56:25;;;;;;;17.27;4.88;;;;;;;23.31;53.06;93934.50;5062547;28;20231;-82
2023/07/22 00:58:52;;;;;;;9.00;4.32;;;;;;;23.32;53.54;93941.47;5062047;28;20025;-83
2023/07/22 01:01:17;;;;;;;15.57;5.63;;;;;;;23.31;53.95;93939.94;5063268;28;20032;-82
2023/07/22 01:03:43;;;;;;;11.82;5.47;;;;;;;23.28;54.01;93938.00;5063396;28;20059;-82
2023/07/22 01:06:09;;;;;;;10.98;5.28;;;;;;;23.27;54.63;93939.16;5063097;28;20028;-82
2023/07/22 01:08:35;;;;;;;11.98;5.13;;;;;;;23.25;53.96;93933.34;5061901;28;20052;-82
2023/07/22 01:11:00;;;;;;;13.93;5.40;;;;;;;23.15;53.88;93931.44;5061957;28;20120;-82
2023/07/22 01:13:26;;;;;;;15.52;4.47;;;;;;;23.12;54.55;93922.13;5063196;28;20051;-82
2023/07/22 01:15:52;;;;;;;9.18;5.28;;;;;;;23.09;54.66;93922.13;5063194;28;20286;-83
2023/07/22 01:18:18;;;;;;;10.32;4.18;;;;;;;23.03;54.82;93908.16;5061905;28;20055;-82
2023/07/22 01:20:44;;;;;;;15.68;5.65;;;;;;;23.06;54.96;93912.03;5063177;28;20020;-83
2023/07/22 01:23:10;;;;;;;14.77;6.03;;;;;;;23.05;54.92;93908.53;5062828;28;20035;-82
2023/07/22 01:25:36;;;;;;;12.68;5.68;;;;;;;23.06;55.68;93912.03;5063219;28;20036;-83
2023/07/22 01:28:02;;;;;;;11.40;4.88;;;;;;;23.01;55.76;93913.16;5063169;28;20326;-82
2023/07/22 01:30:27;;;;;;;12.95;5.20;;;;;;;22.98;56.20;93909.28;5062993;28;20028;-83
2023/07/22 01:32:53;;;;;;;15.27;4.93;;;;;;;22.96;56.38;93908.91;5062884;28;20225;-83
2023/07/22 01:35:19;;;;;;;10.20;4.75;;;;;;;22.98;56.04;93905.81;5062004;28;20111;-82
2023/07/22 01:37:45;;;;;;;13.18;6.15;;;;;;;23.00;56.92;93900.75;5061079;28;20021;-83
2023/07/22 01:40:14;;;;;;;16.35;5.20;;;;;;;22.95;56.88;93885.59;5060844;28;20067;-83
2023/07/22 01:42:40;;;;;;;16.30;4.97;;;;;;;22.89;57.15;93891.84;5062692;28;20044;-83
2023/07/22 01:45:07;;;;;;;12.40;4.47;;;;;;;22.87;57.17;93886.78;5062588;28;20029;-83
2023/07/22 01:47:35;;;;;;;11.38;5.03;;;;;;;22.78;56.84;93889.13;5063061;28;20025;-82
2023/07/22 01:50:01;;;;;;;9.43;4.72;;;;;;;22.72;57.00;93887.97;5063229;28;20025;-82
2023/07/22 01:52:27;;;;;;;11.07;4.55;;;;;;;22.74;57.31;93880.22;5063092;28;20044;-82
2023/07/22 01:54:52;;;;;;;17.20;5.20;;;;;;;22.76;57.38;93880.59;5063000;28;20029;-83
2023/07/22 01:57:18;;;;;;;8.90;4.88;;;;;;;22.70;57.07;93882.94;5062885;28;20025;-82
2023/07/22 01:59:43;;;;;;;12.07;5.10;;;;;;;22.59;57.14;93882.94;5061805;28;20104;-82
2023/07/22 02:02:09;;;;;;;16.42;5.00;;;;;;;22.55;56.37;93874.03;5063066;28;20100;-82
2023/07/22 02:04:34;;;;;;;14.15;5.25;;;;;;;22.47;56.67;93883.34;5063185;28;20092;-82
2023/07/22 02:06:59;;;;;;;12.43;5.20;;;;;;;22.37;57.93;93878.69;5063794;28;20192;-82
2023/07/22 02:09:25;;;;;;;13.68;5.70;;;;;;;22.35;58.00;93875.56;5066673;28;20059;-82
2023/07/22 02:11:50;;;;;;;13.60;5.15;;;;;;;22.40;58.74;93873.22;5067025;28;20049;-82
2023/07/22 02:14:16;;;;;;;16.98;5.05;;;;;;;22.32;58.85;93882.53;5067738;28;20027;-82
2023/07/22 02:16:41;;;;;;;13.13;4.90;;;;;;;22.32;58.92;93882.53;5068646;28;20028;-82
2023/07/22 02:19:07;;;;;;;10.68;4.88;;;;;;;22.37;58.97;93894.97;5067220;28;20096;-83
2023/07/22 02:21:32;;;;;;;19.08;5.75;;;;;;;22.31;59.01;93891.88;5066501;28;20159;-83
2023/07/22 02:23:58;;;;;;;10.73;4.97;;;;;;;22.27;59.89;93890.28;5066637;28;20096;-83
2023/07/22 02:26:23;;;;;;;17.45;4.93;;;;;;;22.20;58.59;93888.31;5066590;28;20017;-83
2023/07/22 02:28:49;;;;;;;11.38;5.38;;;;;;;22.13;58.09;93891.81;5067487;28;20017;-82
2023/07/22 02:31:14;;;;;;;17.35;5.18;;;;;;;22.07;58.20;93887.91;5069528;28;20094;-82
2023/07/22 02:33:40;;;;;;;11.70;5.05;;;;;;;22.06;58.50;93891.00;5066986;28;20021;-84
2023/07/22 02:36:06;;;;;;;23.45;5.70;;;;;;;22.03;58.88;93898.00;5067191;28;20013;-82
2023/07/22 02:38:31;;;;;;;15.00;5.25;;;;;;;21.99;59.11;93897.97;5069594;28;20028;-82
2023/07/22 02:41:06;;;;;;;15.43;5.70;;;;;;;21.99;58.85;93905.34;5070026;28;20024;-82
2023/07/22 02:43:32;;;;;;;11.60;5.25;;;;;;;22.01;58.67;93897.59;5069761;28;20101;-81
2023/07/22 02:46:00;;;;;;;11.55;4.95;;;;;;;22.03;59.29;93900.72;5070058;28;20032;-82
2023/07/22 02:48:26;;;;;;;11.77;5.22;;;;;;;22.06;60.03;93894.50;5069600;28;20021;-81
2023/07/22 02:50:51;;;;;;;10.25;4.65;;;;;;;22.07;58.86;93903.44;5069639;28;20211;-82
2023/07/22 02:53:16;;;;;;;19.20;5.80;;;;;;;22.06;58.65;93896.44;5070024;28;20029;-82
2023/07/22 02:55:42;;;;;;;8.60;4.43;;;;;;;22.01;58.80;93906.50;5071189;28;20025;-82
2023/07/22 02:58:07;;;;;;;11.55;5.65;;;;;;;21.98;59.01;93901.06;5070718;28;20078;-82
2023/07/22 03:00:33;;;;;;;15.70;5.40;;;;;;;21.97;58.85;93902.25;5070354;28;20025;-83
2023/07/22 03:03:00;;;;;;;17.48;5.53;;;;;;;22.02;58.82;93901.84;5071100;28;20021;-82
2023/07/22 03:05:30;;;;;;;14.00;5.13;;;;;;;22.00;58.62;93912.31;5070589;28;20029;-82
2023/07/22 03:07:55;;;;;;;10.88;5.93;;;;;;;21.97;59.20;93899.53;5071053;28;20035;-82
2023/07/22 03:10:21;;;;;;;17.27;5.60;;;;;;;21.95;59.42;93918.13;5071110;28;20024;-83
2023/07/22 03:12:47;;;;;;;9.23;5.63;;;;;;;21.90;60.09;93916.59;5072837;28;20247;-82
2023/07/22 03:15:13;;;;;;;21.02;4.82;;;;;;;21.97;60.32;93916.59;5072853;28;20021;-81
2023/07/22 03:17:41;;;;;;;13.57;6.18;;;;;;;21.99;60.14;93908.06;5073195;28;20040;-81
2023/07/22 03:20:14;;;;;;;11.30;5.57;;;;;;;21.90;60.41;93910.34;5071328;28;20025;-81
2023/07/22 03:22:41;;;;;;;13.75;5.28;;;;;;;21.92;61.01;93908.03;5073734;28;20033;-81
2023/07/22 03:25:10;;;;;;;10.20;5.05;;;;;;;21.89;60.95;93908.81;5071704;28;20035;-80
2023/07/22 03:27:37;;;;;;;13.75;5.32;;;;;;;21.80;60.87;93904.53;5071400;28;20092;-82
2023/07/22 03:30:03;;;;;;;10.25;6.07;;;;;;;21.90;61.99;93915.78;5071491;28;20028;-81
2023/07/22 03:32:29;;;;;;;19.85;5.78;;;;;;;21.89;60.45;93925.09;5070129;28;20052;-81
2023/07/22 03:34:55;;;;;;;11.43;5.93;;;;;;;21.83;60.57;93917.31;5070216;28;20024;-81
2023/07/22 03:37:20;;;;;;;14.63;6.47;;;;;;;21.73;61.70;93923.47;5070089;28;20021;-81
2023/07/22 03:39:45;;;;;;;17.50;6.05;;;;;;;21.77;61.31;93926.22;5069650;28;20047;-81
2023/07/22 03:42:11;;;;;;;13.15;5.50;;;;;;;21.74;61.01;93929.72;5067791;28;20024;-82
2023/07/22 03:44:37;;;;;;;15.82;6.03;;;;;;;21.74;61.34;93935.91;5065336;28;20029;-82
2023/07/22 03:47:02;;;;;;;11.77;5.53;;;;;;;21.74;61.81;93943.28;5065303;28;20094;-82
2023/07/22 03:49:28;;;;;;;18.52;5.72;;;;;;;21.77;61.68;93940.56;5064943;28;20028;-82
2023/07/22 03:51:53;;;;;;;10.98;5.60;;;;;;;21.71;61.62;93938.59;5064842;28;20033;-82
2023/07/22 03:54:19;;;;;;;21.77;6.38;;;;;;;21.77;62.25;93947.91;5065061;28;20059;-82
2023/07/22 03:56:44;;;;;;;12.57;6.43;;;;;;;21.83;62.26;93949.09;5065483;28;20028;-82
2023/07/22 03:59:10;;;;;;;13.60;5.95;;;;;;;21.92;62.71;93952.25;5065214;28;20029;-82
2023/07/22 04:01:35;;;;;;;12.75;5.45;;;;;;;21.96;61.12;93957.66;5065139;28;20029;-82
2023/07/22 04:04:01;;;;;;;12.18;5.80;;;;;;;21.99;61.61;93963.09;5064789;28;20062;-82
2023/07/22 04:06:26;;;;;;;13.23;5.70;;;;;;;22.02;60.98;93958.84;5064988;28;20045;-82
2023/07/22 04:08:52;;;;;;;12.55;5.50;;;;;;;22.05;61.08;93949.94;5064626;28;20088;-83
2023/07/22 04:11:17;;;;;;;15.70;5.70;;;;;;;22.06;60.61;93956.16;5064811;28;20319;-82
2023/07/22 04:13:42;;;;;;;13.65;5.43;;;;;;;22.06;60.73;93946.06;5064563;28;20311;-82
2023/07/22 04:16:08;;;;;;;14.88;5.88;;;;;;;22.10;60.53;93963.13;5064392;28;20365;-82
2023/07/22 04:18:34;;;;;;;20.45;6.07;;;;;;;22.15;60.87;93954.63;5064512;28;20052;-82
2023/07/22 04:21:00;;;;;;;29.58;6.68;;;;;;;22.18;60.79;93955.78;5064451;28;20036;-82
2023/07/22 04:23:26;;;;;;;12.45;4.95;;;;;;;22.21;60.05;93953.09;5064581;28;20071;-85
2023/07/22 04:25:51;;;;;;;18.23;5.75;;;;;;;22.24;60.27;93963.19;5063270;28;20037;-82
2023/07/22 04:28:17;;;;;;;14.65;6.07;;;;;;;22.28;60.23;93965.91;5064216;28;20189;-83
2023/07/22 04:30:42;;;;;;;13.88;5.45;;;;;;;22.30;60.24;93957.41;5062850;28;20025;-82
2023/07/22 04:33:11;;;;;;;14.85;6.18;;;;;;;22.37;61.05;93971.00;5063816;28;20304;-82
2023/07/22 04:35:41;;;;;;;23.25;5.75;;;;;;;22.41;59.99;93972.56;5063310;28;20036;-83
2023/07/22 04:38:06;;;;;;;20.27;6.95;;;;;;;22.50;59.59;93969.44;5063709;28;20021;-82
2023/07/22 04:40:32;;;;;;;10.68;6.15;;;;;;;22.54;60.17;93983.03;5063531;28;20028;-82
2023/07/22 04:42:57;;;;;;;16.13;5.47;;;;;;;22.62;59.40;93977.22;5063782;28;20020;-82
2023/07/22 04:45:26;;;;;;;17.20;7.45;;;;;;;22.76;59.31;93976.47;5064117;28;20200;-83
2023/07/22 04:47:51;;;;;;;19.83;6.03;;;;;;;22.73;59.03;93971.03;5063688;28;20028;-82
2023/07/22 04:50:17;;;;;;;16.90;6.15;;;;;;;22.78;59.53;93976.84;5063335;28;20422;-81
2023/07/22 04:52:45;;;;;;;19.45;6.00;;;;;;;22.78;59.35;93976.09;5063498;28;20028;-82
2023/07/22 04:55:11;;;;;;;14.73;5.65;;;;;;;22.80;60.19;93971.03;5063029;28;20091;-82
2023/07/22 04:57:38;;;;;;;19.85;6.75;;;;;;;22.90;60.34;93972.97;5063192;28;20025;-82
2023/07/22 05:00:04;;;;;;;18.55;5.60;;;;;;;22.94;59.46;93976.47;5063113;28;20024;-82
2023/07/22 05:02:30;;;;;;;19.90;5.75;;;;;;;23.04;59.23;93980.38;5063307;28;20131;-82
2023/07/22 05:04:56;;;;;;;17.77;5.53;;;;;;;23.08;59.43;93977.63;5063101;28;20102;-83
2023/07/22 05:07:22;;;;;;;12.77;6.18;;;;;;;23.13;58.49;93980.75;5062964;28;20032;-83
2023/07/22 05:09:48;;;;;;;15.80;6.25;;;;;;;23.20;58.59;93988.91;5063089;28;20238;-83
2023/07/22 05:12:13;;;;;;;14.70;6.20;;;;;;;23.22;58.05;93980.34;5063012;28;20020;-83
2023/07/22 05:14:39;;;;;;;13.30;5.82;;;;;;;23.11;58.48;93993.97;5062757;28;20063;-83
2023/07/22 05:17:04;;;;;;;20.02;6.63;;;;;;;23.16;59.04;93998.22;5062932;28;20025;-83
2023/07/22 05:19:30;;;;;;;14.57;5.75;;;;;;;23.22;59.06;93997.44;5062824;28;20032;-83
2023/07/22 05:21:55;;;;;;;16.50;6.20;;;;;;;23.30;58.68;94003.63;5063906;28;20093;-83
2023/07/22 05:24:23;;;;;;;11.38;6.60;;;;;;;23.36;58.28;94002.06;5063947;28;20035;-83
2023/07/22 05:26:49;;;;;;;21.98;6.10;;;;;;;23.43;58.02;93993.91;5062708;28;20029;-83
2023/07/22 05:29:14;;;;;;;21.20;6.47;;;;;;;23.52;57.60;93998.94;5062678;28;20024;-83
2023/07/22 05:31:41;;;;;;;22.35;6.10;;;;;;;23.61;57.14;93984.91;5061550;28;20100;-83
2023/07/22 05:34:07;;;;;;;19.40;6.60;;;;;;;23.66;56.85;94000.09;5062712;28;20032;-82
2023/07/22 05:36:32;;;;;;;18.05;6.40;;;;;;;23.75;56.87;93986.81;5062810;28;20021;-83
2023/07/22 05:38:58;;;;;;;16.42;6.72;;;;;;;23.77;57.43;94001.63;5061521;28;20096;-83
2023/07/22 05:41:23;;;;;;;13.82;6.03;;;;;;;23.89;57.09;93997.69;5062839;28;20048;-83
2023/07/22 05:43:49;;;;;;;11.63;6.28;;;;;;;24.01;56.81;93993.75;5066646;28;20056;-83
2023/07/22 05:46:14;;;;;;;13.45;6.13;;;;;;;24.08;55.57;94004.63;5066698;28;20021;-83
2023/07/22 05:48:39;;;;;;;13.30;5.40;;;;;;;24.16;55.44;94008.88;5066525;28;20039;-83
2023/07/22 05:51:05;;;;;;;15.57;5.78;;;;;;;24.14;55.59;94016.66;5066655;28;20032;-83
2023/07/22 05:53:32;;;;;;;19.63;6.18;;;;;;;24.14;55.70;94011.22;5066375;28;20120;-83
2023/07/22 05:55:57;;;;;;;18.35;6.35;;;;;;;24.16;56.30;94011.59;5065497;28;20028;-83
2023/07/22 05:58:23;;;;;;;20.48;6.70;;;;;;;24.19;55.31;94002.63;5066630;28;20316;-83
2023/07/22 06:00:48;;;;;;;20.02;6.55;;;;;;;24.27;55.98;94003.38;5066267;28;20062;-83
2023/07/22 06:03:14;;;;;;;13.00;5.97;;;;;;;24.38;55.77;94001.38;5066507;28;20437;-83
2023/07/22 06:05:40;;;;;;;20.60;6.35;;;;;;;24.45;55.31;94007.97;5064925;28;20027;-82
2023/07/22 06:08:05;;;;;;;17.70;5.43;;;;;;;24.50;55.52;94015.72;5066236;28;20080;-83
2023/07/22 06:10:31;;;;;;;29.60;7.57;;;;;;;24.53;55.33;94010.25;5066283;28;20020;-83
2023/07/22 06:12:57;;;;;;;16.60;6.63;;;;;;;24.58;55.65;94023.44;5066164;28;20066;-83
2023/07/22 06:15:23;;;;;;;19.13;6.18;;;;;;;24.61;55.31;94030.06;5066150;28;20104;-83
2023/07/22 06:17:48;;;;;;;13.50;6.13;;;;;;;24.57;55.48;94042.94;5066130;28;20025;-82
2023/07/22 06:20:14;;;;;;;24.30;8.00;;;;;;;24.58;56.01;94045.25;5065865;28;20029;-82
2023/07/22 06:22:39;;;;;;;17.15;7.30;;;;;;;24.64;55.82;94048.34;5064815;28;20326;-83
2023/07/22 06:25:06;;;;;;;17.13;7.03;;;;;;;24.64;55.86;94040.16;5064616;28;20319;-83
2023/07/22 06:27:31;;;;;;;18.42;6.05;;;;;;;24.66;55.77;94050.66;5065904;28;20071;-83
2023/07/22 06:29:58;;;;;;;16.02;6.35;;;;;;;24.78;55.51;94042.03;5065748;28;20028;-83
2023/07/22 06:32:23;;;;;;;19.20;6.88;;;;;;;24.91;54.92;94051.28;5066009;28;20029;-83
2023/07/22 06:34:49;;;;;;;18.33;6.68;;;;;;;24.99;54.89;94050.06;5065698;28;20303;-83
2023/07/22 06:37:14;;;;;;;22.20;7.95;;;;;;;25.06;54.44;94053.91;5064356;28;20021;-83
2023/07/22 06:39:40;;;;;;;17.77;5.93;;;;;;;25.10;54.74;94052.72;5065840;28;20013;-83
2023/07/22 06:42:05;;;;;;;16.35;7.10;;;;;;;25.20;54.20;94056.53;5065721;28;20345;-83
2023/07/22 06:44:31;;;;;;;21.55;7.13;;;;;;;25.19;54.32;94058.47;5065266;28;20017;-83
2023/07/22 06:46:56;;;;;;;15.40;5.75;;;;;;;25.18;53.98;94054.22;5065715;28;20020;-83
2023/07/22 06:49:22;;;;;;;15.02;7.35;;;;;;;25.30;54.90;94057.63;5065432;28;20024;-83
2023/07/22 06:51:47;;;;;;;12.23;6.90;;;;;;;25.31;55.26;94057.25;5065512;28;20147;-83
2023/07/22 06:54:13;;;;;;;20.65;6.65;;;;;;;25.35;54.98;94052.53;5064146;28;20235;-83
2023/07/22 06:56:38;;;;;;;16.55;6.68;;;;;;;25.38;54.13;94050.94;5065367;28;20028;-83
2023/07/22 06:59:04;;;;;;;14.77;6.50;;;;;;;25.42;54.03;94060.66;5065452;28;20012;-83
2023/07/22 07:01:29;;;;;;;15.10;7.30;;;;;;;25.55;53.89;94052.75;5065347;28;20027;-84
2023/07/22 07:03:55;;;;;;;14.57;7.10;;;;;;;25.70;53.45;94036.22;5065221;28;20192;-83
2023/07/22 07:06:20;;;;;;;15.00;7.10;;;;;;;25.81;52.33;94045.09;5064970;28;20325;-83
2023/07/22 07:08:46;;;;;;;16.63;6.53;;;;;;;25.87;52.19;94042.69;5065159;28;20051;-84
2023/07/22 07:11:11;;;;;;;13.70;6.45;;;;;;;25.89;53.13;94051.25;5065024;28;20060;-83
2023/07/22 07:13:37;;;;;;;19.83;7.10;;;;;;;25.97;52.19;94047.28;5064953;28;20052;-84
2023/07/22 07:16:24;;;;;;;11.30;5.88;;;;;;;26.02;52.57;94046.84;5064808;28;20033;-84
2023/07/22 07:18:50;;;;;;;14.00;7.72;;;;;;;26.12;51.84;94040.47;5064824;28;20032;-84
2023/07/22 07:21:16;;;;;;;16.85;7.30;;;;;;;26.23;51.29;94046.56;5064808;28;20091;-84
2023/07/22 07:23:43;;;;;;;18.67;6.90;;;;;;;26.38;50.76;94049.16;5064874;28;20346;-83
2023/07/22 07:26:09;;;;;;;19.80;7.50;;;;;;;26.39;50.73;94037.81;5064676;28;20025;-84
2023/07/22 07:28:34;;;;;;;16.13;7.57;;;;;;;26.50;49.93;94034.94;5064564;28;20055;-84
2023/07/22 07:31:00;;;;;;;19.75;8.05;;;;;;;26.61;49.69;94030.13;5064469;28;20059;-83
2023/07/22 07:33:25;;;;;;;15.68;7.05;;;;;;;26.73;48.89;94025.28;5064820;28;20028;-83
2023/07/22 07:35:51;;;;;;;14.93;7.25;;;;;;;26.80;48.88;94020.47;5064541;28;20035;-84
2023/07/22 07:38:17;;;;;;;18.27;7.03;;;;;;;26.83;48.56;94021.63;5064491;28;20029;-83
2023/07/22 07:40:42;;;;;;;16.67;7.53;;;;;;;26.82;49.51;94020.84;5064522;28;20028;-83
2023/07/22 07:43:08;;;;;;;18.45;7.00;;;;;;;26.92;49.44;94013.66;5064425;28;20028;-83
2023/07/22 07:45:33;;;;;;;21.48;7.82;;;;;;;26.98;48.98;94025.69;5064430;28;20024;-83
2023/07/22 07:47:59;;;;;;;27.27;8.20;;;;;;;27.14;48.60;94024.28;5064631;28;20092;-83
2023/07/22 07:50:24;;;;;;;17.50;8.27;;;;;;;27.01;48.16;94024.88;5064338;28;20307;-84
2023/07/22 07:52:50;;;;;;;17.00;7.45;;;;;;;27.06;48.65;94026.34;5064044;28;20025;-83
2023/07/22 07:55:15;;;;;;;14.38;6.75;;;;;;;26.99;49.13;94021.78;5062955;28;20205;-84
2023/07/22 07:57:41;;;;;;;16.15;7.72;;;;;;;27.14;49.29;94022.31;5064141;28;20097;-84
2023/07/22 08:00:08;;;;;;;13.98;7.03;;;;;;;27.30;49.03;94018.97;5064189;28;20278;-84
2023/07/22 08:02:35;;;;;;;19.08;8.15;;;;;;;27.32;48.64;94016.56;5064066;28;20044;-84
2023/07/22 08:05:00;;;;;;;25.33;8.27;;;;;;;27.44;49.19;94017.16;5063742;28;20031;-84
2023/07/22 08:07:26;;;;;;;25.50;7.93;;;;;;;27.58;48.70;94008.72;5064251;28;20097;-84
2023/07/22 08:09:52;;;;;;;19.77;7.97;;;;;;;27.70;47.17;94008.09;5062771;28;20056;-84
2023/07/22 08:12:18;;;;;;;17.40;8.32;;;;;;;27.75;47.32;94009.56;5063851;28;20235;-83
2023/07/22 08:14:44;;;;;;;24.95;8.45;;;;;;;27.80;46.88;94009.06;5063859;28;20044;-83
2023/07/22 08:17:09;;;;;;;27.42;7.72;;;;;;;27.73;47.86;94007.25;5063598;28;20021;-83
2023/07/22 08:19:35;;;;;;;16.10;7.85;;;;;;;27.95;48.17;94009.63;5063973;28;20048;-83
2023/07/22 08:22:00;;;;;;;20.75;7.97;;;;;;;28.16;46.90;94016.63;5063807;28;20028;-84
2023/07/22 08:24:26;;;;;;;15.45;8.23;;;;;;;28.28;45.62;94013.25;5063569;28;20028;-84
2023/07/22 08:26:51;;;;;;;23.50;8.82;;;;;;;28.34;44.60;94010.78;5063700;28;20028;-83
2023/07/22 08:29:17;;;;;;;20.88;7.88;;;;;;;28.35;44.55;94002.16;5063510;28;20389;-83
2023/07/22 08:31:42;;;;;;;24.35;7.28;;;;;;;28.32;44.97;94008.47;5063257;28;20327;-85
2023/07/22 08:34:08;;;;;;;17.20;8.50;;;;;;;28.46;45.95;94007.41;5063567;28;20021;-84
2023/07/22 08:36:34;;;;;;;23.15;7.78;;;;;;;28.57;45.03;94002.47;5063554;28;20031;-83
2023/07/22 08:38:59;;;;;;;17.58;8.48;;;;;;;28.60;44.75;94003.63;5062292;28;20316;-84
2023/07/22 08:41:25;;;;;;;18.60;8.02;;;;;;;28.68;44.34;93991.28;5063505;28;20037;-84
2023/07/22 08:43:51;;;;;;;24.80;8.15;;;;;;;28.87;44.38;93986.16;5063110;28;20036;-84
2023/07/22 08:46:20;;;;;;;22.27;8.25;;;;;;;28.91;44.24;93976.63;5063193;28;20025;-83
2023/07/22 08:48:52;;;;;;;18.45;7.82;;;;;;;28.89;44.41;93978.28;5063172;28;20033;-83
2023/07/22 08:51:18;;;;;;;19.20;8.75;;;;;;;29.01;44.18;93975.59;5063459;28;20249;-83
2023/07/22 08:53:45;;;;;;;25.17;8.55;;;;;;;29.14;43.13;93959.25;5062962;28;20056;-83
2023/07/22 08:56:11;;;;;;;23.33;7.55;;;;;;;29.25;42.86;93960.94;5062033;28;20021;-83
2023/07/22 08:58:38;;;;;;;22.80;7.80;;;;;;;29.24;43.47;93959.41;5063114;28;20044;-83
2023/07/22 09:01:04;;;;;;;23.38;7.50;;;;;;;29.18;43.79;93953.69;5062852;28;20315;-83
2023/07/22 09:03:30;;;;;;;22.85;7.65;;;;;;;29.37;43.69;93963.00;5063300;28;20024;-83
2023/07/22 09:05:56;;;;;;;19.13;8.65;;;;;;;29.32;43.20;93967.03;5063177;28;20319;-83
2023/07/22 09:08:22;;;;;;;19.23;7.50;;;;;;;29.28;42.64;93958.13;5063009;28;20063;-83
2023/07/22 09:10:48;;;;;;;27.30;8.93;;;;;;;29.34;42.89;93953.66;5062931;28;20036;-83
2023/07/22 09:13:14;;;;;;;17.80;7.03;;;;;;;29.54;42.97;93961.78;5062952;28;20029;-82
2023/07/22 09:15:40;;;;;;;23.90;7.93;;;;;;;29.72;42.11;93961.31;5062827;28;20029;-82
2023/07/22 09:18:06;;;;;;;12.90;7.20;;;;;;;29.78;41.36;93953.34;5062288;28;20032;-84
2023/07/22 09:20:34;;;;;;;17.25;7.10;;;;;;;29.93;42.32;93959.19;5062857;28;20028;-82
2023/07/22 09:23:00;;;;;;;18.80;8.27;;;;;;;30.11;42.03;93958.69;5062756;28;20067;-82
2023/07/22 09:25:27;;;;;;;23.80;7.60;;;;;;;30.22;41.78;93945.38;5061783;28;20021;-83
2023/07/22 09:27:55;;;;;;;17.55;8.00;;;;;;;30.44;41.71;93959.31;5061878;28;20025;-82
2023/07/22 09:30:24;;;;;;;19.63;7.80;;;;;;;30.58;41.20;93953.38;5062737;28;20033;-82
2023/07/22 09:32:50;;;;;;;16.05;6.95;;;;;;;30.64;39.86;93950.09;5062802;28;20028;-82
2023/07/22 09:35:18;;;;;;;28.83;7.82;;;;;;;30.72;40.47;93952.16;5063125;28;20013;-82
2023/07/22 09:37:44;;;;;;;22.02;6.82;;;;;;;30.78;39.95;93955.91;5063012;28;20017;-82
2023/07/22 09:40:27;;;;;;;16.52;7.15;;;;;;;30.77;39.48;93959.09;5061610;28;20304;-83
2023/07/22 09:43:00;;;;;;;17.05;8.07;;;;;;;30.84;39.85;93942.38;5063121;28;20227;-83
2023/07/22 09:45:30;;;;;;;20.60;8.15;;;;;;;30.94;40.00;93941.28;5061639;28;20108;-83
2023/07/22 09:47:56;;;;;;;15.68;6.75;;;;;;;31.08;39.61;93944.75;5061608;28;20025;-83
2023/07/22 09:50:23;;;;;;;18.25;7.45;;;;;;;31.17;39.78;93936.63;5062653;28;20029;-83
2023/07/22 09:52:58;;;;;;;24.83;7.55;;;;;;;31.31;38.94;93938.13;5062635;28;20025;-82
2023/07/22 09:55:28;;;;;;;19.88;7.50;;;;;;;31.25;38.40;93926.91;5061400;28;20044;-83
2023/07/22 09:57:55;;;;;;;22.65;6.93;;;;;;;31.26;37.70;93928.41;5061563;28;20035;-83
2023/07/22 10:00:23;;;;;;;21.90;7.10;;;;;;;31.23;38.25;93934.06;5062575;28;20316;-83
2023/07/22 10:02:52;;;;;;;14.27;6.40;;;;;;;31.23;37.95;93934.06;5062486;28;20036;-82
2023/07/22 10:05:20;;;;;;;27.70;8.50;;;;;;;31.30;38.38;93920.81;5062428;28;20261;-83
2023/07/22 10:07:47;;;;;;;29.10;8.02;;;;;;;31.37;37.27;93934.34;5062483;28;20016;-83
2023/07/22 10:10:16;;;;;;;24.15;7.80;;;;;;;31.43;36.91;93926.28;5062414;28;20319;-83
2023/07/22 10:12:42;;;;;;;20.50;6.97;;;;;;;31.47;36.77;93931.69;5062527;28;20035;-83
2023/07/22 10:15:13;;;;;;;16.10;6.70;;;;;;;31.61;36.90;93925.72;5061959;28;20075;-83
2023/07/22 10:17:40;;;;;;;26.00;6.68;;;;;;;31.69;36.74;93915.97;5062500;28;20047;-82
2023/07/22 10:20:07;;;;;;;18.30;7.80;;;;;;;31.75;35.58;93936.22;5062407;28;20100;-83
2023/07/22 10:22:37;;;;;;;22.50;6.55;;;;;;;31.74;35.74;93929.16;5061300;28;20051;-83
2023/07/22 10:25:07;;;;;;;24.45;7.80;;;;;;;31.79;36.12;93914.81;5062212;28;20029;-83
2023/07/22 10:27:34;;;;;;;18.60;7.15;;;;;;;31.86;35.90;93919.28;5061285;28;20025;-83
2023/07/22 10:30:00;;;;;;;23.38;7.03;;;;;;;31.93;35.82;93910.00;5065931;28;20043;-83
2023/07/22 10:32:32;;;;;;;24.10;7.85;;;;;;;32.14;36.23;93906.47;5065999;28;20355;-84
2023/07/22 10:34:58;;;;;;;25.70;6.60;;;;;;;32.26;35.82;93904.06;5065821;28;20087;-83
2023/07/22 10:37:30;;;;;;;18.05;7.00;;;;;;;32.45;33.35;93910.47;5065840;28;20315;-83
2023/07/22 10:39:59;;;;;;;23.02;6.07;;;;;;;32.50;32.04;93901.56;5065715;28;20021;-83
2023/07/22 10:42:25;;;;;;;32.45;6.97;;;;;;;32.62;30.92;93894.44;5066077;28;20024;-83
2023/07/22 10:44:51;;;;;;;21.13;5.55;;;;;;;32.70;31.94;93901.22;5065638;28;20032;-83
2023/07/22 10:47:34;;;;;;;27.05;5.70;;;;;;;32.80;30.83;93894.50;5065628;28;20122;-84
2023/07/22 10:50:07;;;;;;;24.55;5.43;;;;;;;32.80;30.23;93896.50;5065443;28;20036;-83
2023/07/22 10:52:46;;;;;;;36.25;6.13;;;;;;;32.82;29.88;93899.56;5065434;28;20218;-83
2023/07/22 10:55:16;;;;;;;19.35;5.40;;;;;;;32.88;29.98;93906.78;5065382;28;20056;-83
2023/07/22 10:57:50;;;;;;;29.63;5.88;;;;;;;32.85;29.11;93891.16;5065418;28;20025;-83
2023/07/22 11:00:20;;;;;;;28.88;6.10;;;;;;;33.04;30.26;93888.44;5065376;28;20108;-83
2023/07/22 11:03:07;;;;;;;40.33;5.57;;;;;;;33.06;29.07;93897.78;5065302;28;20013;-84
2023/07/22 11:05:53;;;;;;;24.75;7.88;;;;;;;33.01;28.02;93892.09;5064909;28;20025;-83
2023/07/22 11:08:41;;;;;;;27.02;6.22;;;;;;;33.11;28.75;93885.38;5065209;28;20028;-83
2023/07/22 11:11:06;;;;;;;26.02;5.65;;;;;;;33.19;29.45;93883.84;5064965;28;20036;-84
2023/07/22 11:13:39;;;;;;;38.50;7.40;;;;;;;33.22;28.50;93891.22;5065006;28;20025;-84
2023/07/22 11:16:04;;;;;;;20.98;5.15;;;;;;;33.17;29.20;93900.13;5065169;28;20062;-83
2023/07/22 11:18:37;;;;;;;24.20;6.40;;;;;;;33.23;28.90;93876.19;5065025;28;20029;-83
2023/07/22 11:21:08;;;;;;;20.73;5.05;;;;;;;33.28;28.81;93883.09;5065052;28;20025;-84